sensor_id;sensor_type;location;lat;lon;timestamp;P1;durP1;ratioP1;P2;durP2;ratioP2
16254;SDS011;8235;52.198;9.904;2023-03-12T00:01:37;4.43;;;1.13;;
16254;SDS011;8235;52.198;9.904;2023-03-12T00:04:05;3.50;;;1.07;;
16254;SDS011;8235;52.198;9.904;2023-03-12T00:06:31;1.90;;;1.50;;
16254;SDS011;8235;52.198;9.904;2023-03-12T00:08:58;1.43;;;1.30;;
16254;SDS011;8235;52.198;9.904;2023-03-12T00:11:25;2.90;;;1.43;;
16254;SDS011;8235;52.198;9.904;2023-03-12T00:13:54;2.60;;;1.47;;
16254;SDS011;8235;52.198;9.904;2023-03-12T00:16:23;2.30;;;1.10;;
16254;SDS011;8235;52.198;9.904;2023-03-12T00:18:50;4.37;;;2.13;;
16254;SDS011;8235;52.198;9.904;2023-03-12T00:21:18;4.40;;;1.40;;
16254;SDS011;8235;52.198;9.904;2023-03-12T00:23:46;3.00;;;1.20;;
16254;SDS011;8235;52.198;9.904;2023-03-12T00:26:13;3.57;;;1.70;;
16254;SDS011;8235;52.198;9.904;2023-03-12T00:28:40;3.13;;;1.30;;
16254;SDS011;8235;52.198;9.904;2023-03-12T00:31:15;3.73;;;1.53;;
16254;SDS011;8235;52.198;9.904;2023-03-12T00:33:43;4.47;;;1.40;;
16254;SDS011;8235;52.198;9.904;2023-03-12T00:36:10;2.63;;;1.40;;
16254;SDS011;8235;52.198;9.904;2023-03-12T00:38:37;1.60;;;1.07;;
16254;SDS011;8235;52.198;9.904;2023-03-12T00:41:03;3.50;;;1.50;;
16254;SDS011;8235;52.198;9.904;2023-03-12T00:43:30;3.50;;;2.10;;
16254;SDS011;8235;52.198;9.904;2023-03-12T00:45:56;5.70;;;1.57;;
16254;SDS011;8235;52.198;9.904;2023-03-12T00:48:24;7.27;;;1.83;;
16254;SDS011;8235;52.198;9.904;2023-03-12T00:50:50;3.60;;;1.70;;
16254;SDS011;8235;52.198;9.904;2023-03-12T00:53:17;2.37;;;1.17;;
16254;SDS011;8235;52.198;9.904;2023-03-12T00:55:44;3.43;;;1.40;;
16254;SDS011;8235;52.198;9.904;2023-03-12T00:58:10;2.67;;;1.40;;
16254;SDS011;8235;52.198;9.904;2023-03-12T01:00:37;3.20;;;1.37;;
16254;SDS011;8235;52.198;9.904;2023-03-12T01:03:03;3.60;;;1.30;;
16254;SDS011;8235;52.198;9.904;2023-03-12T01:05:31;2.70;;;1.30;;
16254;SDS011;8235;52.198;9.904;2023-03-12T01:08:01;2.17;;;1.80;;
16254;SDS011;8235;52.198;9.904;2023-03-12T01:10:28;2.23;;;1.43;;
16254;SDS011;8235;52.198;9.904;2023-03-12T01:12:55;4.23;;;1.60;;
16254;SDS011;8235;52.198;9.904;2023-03-12T01:15:21;3.10;;;1.50;;
16254;SDS011;8235;52.198;9.904;2023-03-12T01:17:48;3.13;;;1.83;;
16254;SDS011;8235;52.198;9.904;2023-03-12T01:20:15;6.00;;;1.90;;
16254;SDS011;8235;52.198;9.904;2023-03-12T01:22:43;4.57;;;2.00;;
16254;SDS011;8235;52.198;9.904;2023-03-12T01:25:11;2.83;;;1.77;;
16254;SDS011;8235;52.198;9.904;2023-03-12T01:27:37;3.40;;;1.57;;
16254;SDS011;8235;52.198;9.904;2023-03-12T01:30:05;3.20;;;1.30;;
16254;SDS011;8235;52.198;9.904;2023-03-12T01:32:32;5.17;;;1.60;;
16254;SDS011;8235;52.198;9.904;2023-03-12T01:34:58;2.90;;;1.60;;
16254;SDS011;8235;52.198;9.904;2023-03-12T01:37:25;2.33;;;1.43;;
16254;SDS011;8235;52.198;9.904;2023-03-12T01:39:53;4.13;;;1.63;;
16254;SDS011;8235;52.198;9.904;2023-03-12T01:42:20;4.23;;;1.60;;
16254;SDS011;8235;52.198;9.904;2023-03-12T01:44:47;2.77;;;1.63;;
16254;SDS011;8235;52.198;9.904;2023-03-12T01:47:15;4.87;;;1.50;;
16254;SDS011;8235;52.198;9.904;2023-03-12T01:49:41;4.83;;;1.80;;
16254;SDS011;8235;52.198;9.904;2023-03-12T01:52:10;5.27;;;1.47;;
16254;SDS011;8235;52.198;9.904;2023-03-12T01:54:39;4.97;;;1.70;;
16254;SDS011;8235;52.198;9.904;2023-03-12T01:57:12;3.50;;;1.80;;
16254;SDS011;8235;52.198;9.904;2023-03-12T01:59:41;3.37;;;1.43;;
16254;SDS011;8235;52.198;9.904;2023-03-12T02:02:11;3.23;;;1.60;;
16254;SDS011;8235;52.198;9.904;2023-03-12T02:04:40;3.07;;;1.30;;
16254;SDS011;8235;52.198;9.904;2023-03-12T02:07:09;2.93;;;1.70;;
16254;SDS011;8235;52.198;9.904;2023-03-12T02:09:38;1.93;;;1.37;;
16254;SDS011;8235;52.198;9.904;2023-03-12T02:12:07;3.00;;;1.37;;
16254;SDS011;8235;52.198;9.904;2023-03-12T02:14:36;2.87;;;1.27;;
16254;SDS011;8235;52.198;9.904;2023-03-12T02:17:03;3.20;;;1.20;;
16254;SDS011;8235;52.198;9.904;2023-03-12T02:19:33;4.90;;;1.30;;
16254;SDS011;8235;52.198;9.904;2023-03-12T02:22:08;3.63;;;1.53;;
16254;SDS011;8235;52.198;9.904;2023-03-12T02:24:37;2.23;;;1.50;;
16254;SDS011;8235;52.198;9.904;2023-03-12T02:27:11;4.77;;;1.53;;
16254;SDS011;8235;52.198;9.904;2023-03-12T02:29:38;3.97;;;1.60;;
16254;SDS011;8235;52.198;9.904;2023-03-12T02:32:07;4.27;;;1.70;;
16254;SDS011;8235;52.198;9.904;2023-03-12T02:34:38;3.60;;;1.43;;
16254;SDS011;8235;52.198;9.904;2023-03-12T02:37:04;3.90;;;1.90;;
16254;SDS011;8235;52.198;9.904;2023-03-12T02:39:31;2.90;;;1.47;;
16254;SDS011;8235;52.198;9.904;2023-03-12T02:41:57;2.37;;;1.40;;
16254;SDS011;8235;52.198;9.904;2023-03-12T02:44:26;1.97;;;1.57;;
16254;SDS011;8235;52.198;9.904;2023-03-12T02:46:56;2.87;;;1.70;;
16254;SDS011;8235;52.198;9.904;2023-03-12T02:49:25;2.97;;;1.40;;
16254;SDS011;8235;52.198;9.904;2023-03-12T02:51:54;3.70;;;1.50;;
16254;SDS011;8235;52.198;9.904;2023-03-12T02:54:21;3.90;;;1.53;;
16254;SDS011;8235;52.198;9.904;2023-03-12T02:56:48;2.47;;;1.73;;
16254;SDS011;8235;52.198;9.904;2023-03-12T02:59:16;3.53;;;1.43;;
16254;SDS011;8235;52.198;9.904;2023-03-12T03:01:46;2.27;;;1.40;;
16254;SDS011;8235;52.198;9.904;2023-03-12T03:04:16;6.03;;;1.73;;
16254;SDS011;8235;52.198;9.904;2023-03-12T03:06:43;2.60;;;1.40;;
16254;SDS011;8235;52.198;9.904;2023-03-12T03:09:11;4.10;;;1.40;;
16254;SDS011;8235;52.198;9.904;2023-03-12T03:11:38;1.90;;;1.30;;
16254;SDS011;8235;52.198;9.904;2023-03-12T03:14:04;5.00;;;1.60;;
16254;SDS011;8235;52.198;9.904;2023-03-12T03:16:32;2.90;;;1.90;;
16254;SDS011;8235;52.198;9.904;2023-03-12T03:19:00;3.23;;;1.60;;
16254;SDS011;8235;52.198;9.904;2023-03-12T03:21:27;3.60;;;1.60;;
16254;SDS011;8235;52.198;9.904;2023-03-12T03:23:54;2.10;;;1.40;;
16254;SDS011;8235;52.198;9.904;2023-03-12T03:26:21;4.10;;;1.83;;
16254;SDS011;8235;52.198;9.904;2023-03-12T03:28:49;3.50;;;1.70;;
16254;SDS011;8235;52.198;9.904;2023-03-12T03:31:15;4.53;;;1.77;;
16254;SDS011;8235;52.198;9.904;2023-03-12T03:33:42;4.30;;;1.63;;
16254;SDS011;8235;52.198;9.904;2023-03-12T03:36:10;3.37;;;1.70;;
16254;SDS011;8235;52.198;9.904;2023-03-12T03:38:38;4.67;;;1.60;;
16254;SDS011;8235;52.198;9.904;2023-03-12T03:41:05;3.10;;;1.60;;
16254;SDS011;8235;52.198;9.904;2023-03-12T03:43:32;3.50;;;1.83;;
16254;SDS011;8235;52.198;9.904;2023-03-12T03:45:59;2.47;;;1.93;;
16254;SDS011;8235;52.198;9.904;2023-03-12T03:48:26;3.90;;;1.80;;
16254;SDS011;8235;52.198;9.904;2023-03-12T03:50:53;3.27;;;1.60;;
16254;SDS011;8235;52.198;9.904;2023-03-12T03:53:21;3.20;;;1.63;;
16254;SDS011;8235;52.198;9.904;2023-03-12T03:55:47;3.30;;;1.90;;
16254;SDS011;8235;52.198;9.904;2023-03-12T03:58:14;4.73;;;2.50;;
16254;SDS011;8235;52.198;9.904;2023-03-12T04:00:42;2.10;;;1.87;;
16254;SDS011;8235;52.198;9.904;2023-03-12T04:03:09;3.03;;;1.83;;
16254;SDS011;8235;52.198;9.904;2023-03-12T04:05:36;3.43;;;1.83;;
16254;SDS011;8235;52.198;9.904;2023-03-12T04:08:02;4.67;;;2.13;;
16254;SDS011;8235;52.198;9.904;2023-03-12T04:10:30;2.67;;;1.77;;
16254;SDS011;8235;52.198;9.904;2023-03-12T04:12:57;3.57;;;1.70;;
16254;SDS011;8235;52.198;9.904;2023-03-12T04:15:23;4.93;;;1.83;;
16254;SDS011;8235;52.198;9.904;2023-03-12T04:17:50;4.13;;;1.77;;
16254;SDS011;8235;52.198;9.904;2023-03-12T04:20:16;3.60;;;1.70;;
16254;SDS011;8235;52.198;9.904;2023-03-12T04:22:43;2.73;;;1.80;;
16254;SDS011;8235;52.198;9.904;2023-03-12T04:25:09;2.53;;;1.90;;
16254;SDS011;8235;52.198;9.904;2023-03-12T04:27:37;3.07;;;1.90;;
16254;SDS011;8235;52.198;9.904;2023-03-12T04:30:04;2.27;;;1.50;;
16254;SDS011;8235;52.198;9.904;2023-03-12T04:32:31;2.40;;;1.40;;
16254;SDS011;8235;52.198;9.904;2023-03-12T04:34:57;3.53;;;2.07;;
16254;SDS011;8235;52.198;9.904;2023-03-12T04:37:24;3.83;;;1.50;;
16254;SDS011;8235;52.198;9.904;2023-03-12T04:39:50;3.77;;;2.43;;
16254;SDS011;8235;52.198;9.904;2023-03-12T04:42:17;2.30;;;1.73;;
16254;SDS011;8235;52.198;9.904;2023-03-12T04:44:45;4.30;;;1.70;;
16254;SDS011;8235;52.198;9.904;2023-03-12T04:47:11;2.30;;;1.97;;
16254;SDS011;8235;52.198;9.904;2023-03-12T04:49:37;3.27;;;2.10;;
16254;SDS011;8235;52.198;9.904;2023-03-12T04:52:04;3.97;;;1.70;;
16254;SDS011;8235;52.198;9.904;2023-03-12T04:54:31;5.33;;;2.17;;
16254;SDS011;8235;52.198;9.904;2023-03-12T04:56:58;3.53;;;1.90;;
16254;SDS011;8235;52.198;9.904;2023-03-12T04:59:24;5.63;;;1.87;;
16254;SDS011;8235;52.198;9.904;2023-03-12T05:01:52;2.70;;;1.60;;
16254;SDS011;8235;52.198;9.904;2023-03-12T05:04:18;4.53;;;1.57;;
16254;SDS011;8235;52.198;9.904;2023-03-12T05:06:45;3.63;;;1.80;;
16254;SDS011;8235;52.198;9.904;2023-03-12T05:09:11;3.03;;;1.87;;
16254;SDS011;8235;52.198;9.904;2023-03-12T05:11:38;3.73;;;2.07;;
16254;SDS011;8235;52.198;9.904;2023-03-12T05:14:04;3.47;;;1.90;;
16254;SDS011;8235;52.198;9.904;2023-03-12T05:16:31;2.27;;;1.70;;
16254;SDS011;8235;52.198;9.904;2023-03-12T05:18:58;3.10;;;1.90;;
16254;SDS011;8235;52.198;9.904;2023-03-12T05:21:26;3.27;;;1.93;;
16254;SDS011;8235;52.198;9.904;2023-03-12T05:23:52;4.60;;;2.37;;
16254;SDS011;8235;52.198;9.904;2023-03-12T05:26:19;3.13;;;2.10;;
16254;SDS011;8235;52.198;9.904;2023-03-12T05:28:47;4.90;;;1.73;;
16254;SDS011;8235;52.198;9.904;2023-03-12T05:31:15;4.00;;;2.10;;
16254;SDS011;8235;52.198;9.904;2023-03-12T05:33:42;3.73;;;1.97;;
16254;SDS011;8235;52.198;9.904;2023-03-12T05:36:11;2.40;;;1.67;;
16254;SDS011;8235;52.198;9.904;2023-03-12T05:38:38;5.17;;;2.30;;
16254;SDS011;8235;52.198;9.904;2023-03-12T05:41:06;4.87;;;2.80;;
16254;SDS011;8235;52.198;9.904;2023-03-12T05:43:34;5.33;;;2.40;;
16254;SDS011;8235;52.198;9.904;2023-03-12T05:46:02;3.97;;;2.30;;
16254;SDS011;8235;52.198;9.904;2023-03-12T05:48:29;3.63;;;2.33;;
16254;SDS011;8235;52.198;9.904;2023-03-12T05:50:56;6.03;;;2.20;;
16254;SDS011;8235;52.198;9.904;2023-03-12T05:53:24;3.70;;;2.00;;
16254;SDS011;8235;52.198;9.904;2023-03-12T05:55:51;4.13;;;2.10;;
16254;SDS011;8235;52.198;9.904;2023-03-12T05:58:17;2.63;;;1.87;;
16254;SDS011;8235;52.198;9.904;2023-03-12T06:00:44;5.10;;;2.23;;
16254;SDS011;8235;52.198;9.904;2023-03-12T06:03:10;3.57;;;2.43;;
16254;SDS011;8235;52.198;9.904;2023-03-12T06:05:38;4.33;;;2.43;;
16254;SDS011;8235;52.198;9.904;2023-03-12T06:08:04;5.03;;;1.90;;
16254;SDS011;8235;52.198;9.904;2023-03-12T06:10:32;5.90;;;2.17;;
16254;SDS011;8235;52.198;9.904;2023-03-12T06:12:59;4.03;;;2.50;;
16254;SDS011;8235;52.198;9.904;2023-03-12T06:15:25;4.47;;;2.40;;
16254;SDS011;8235;52.198;9.904;2023-03-12T06:17:52;6.93;;;2.30;;
16254;SDS011;8235;52.198;9.904;2023-03-12T06:20:18;5.70;;;2.37;;
16254;SDS011;8235;52.198;9.904;2023-03-12T06:22:45;5.30;;;2.53;;
16254;SDS011;8235;52.198;9.904;2023-03-12T06:25:11;3.37;;;2.20;;
16254;SDS011;8235;52.198;9.904;2023-03-12T06:27:39;3.63;;;2.30;;
16254;SDS011;8235;52.198;9.904;2023-03-12T06:30:06;13.40;;;2.67;;
16254;SDS011;8235;52.198;9.904;2023-03-12T06:32:33;4.40;;;2.40;;
16254;SDS011;8235;52.198;9.904;2023-03-12T06:35:00;4.43;;;2.53;;
16254;SDS011;8235;52.198;9.904;2023-03-12T06:37:28;4.10;;;2.30;;
16254;SDS011;8235;52.198;9.904;2023-03-12T06:39:55;4.73;;;2.47;;
16254;SDS011;8235;52.198;9.904;2023-03-12T06:42:21;4.77;;;2.63;;
16254;SDS011;8235;52.198;9.904;2023-03-12T06:44:49;4.03;;;2.40;;
16254;SDS011;8235;52.198;9.904;2023-03-12T06:47:16;4.00;;;2.80;;
16254;SDS011;8235;52.198;9.904;2023-03-12T06:49:42;7.20;;;2.90;;
16254;SDS011;8235;52.198;9.904;2023-03-12T06:52:09;3.73;;;2.40;;
16254;SDS011;8235;52.198;9.904;2023-03-12T06:54:36;3.30;;;2.37;;
16254;SDS011;8235;52.198;9.904;2023-03-12T06:57:02;4.93;;;2.80;;
16254;SDS011;8235;52.198;9.904;2023-03-12T06:59:29;3.70;;;2.43;;
16254;SDS011;8235;52.198;9.904;2023-03-12T07:01:57;3.30;;;2.60;;
16254;SDS011;8235;52.198;9.904;2023-03-12T07:04:23;4.73;;;2.57;;
16254;SDS011;8235;52.198;9.904;2023-03-12T07:06:50;3.03;;;1.97;;
16254;SDS011;8235;52.198;9.904;2023-03-12T07:09:16;3.67;;;2.33;;
16254;SDS011;8235;52.198;9.904;2023-03-12T07:11:43;3.87;;;2.40;;
16254;SDS011;8235;52.198;9.904;2023-03-12T07:14:09;3.80;;;2.53;;
16254;SDS011;8235;52.198;9.904;2023-03-12T07:16:36;4.70;;;2.13;;
16254;SDS011;8235;52.198;9.904;2023-03-12T07:19:04;4.07;;;2.20;;
16254;SDS011;8235;52.198;9.904;2023-03-12T07:21:31;3.50;;;2.13;;
16254;SDS011;8235;52.198;9.904;2023-03-12T07:23:57;3.63;;;2.27;;
16254;SDS011;8235;52.198;9.904;2023-03-12T07:26:24;3.67;;;2.23;;
16254;SDS011;8235;52.198;9.904;2023-03-12T07:28:51;2.43;;;2.00;;
16254;SDS011;8235;52.198;9.904;2023-03-12T07:31:17;3.77;;;2.17;;
16254;SDS011;8235;52.198;9.904;2023-03-12T07:33:44;3.27;;;2.10;;
16254;SDS011;8235;52.198;9.904;2023-03-12T07:36:12;4.47;;;2.20;;
16254;SDS011;8235;52.198;9.904;2023-03-12T07:38:38;3.67;;;2.30;;
16254;SDS011;8235;52.198;9.904;2023-03-12T07:41:04;3.07;;;2.10;;
16254;SDS011;8235;52.198;9.904;2023-03-12T07:43:31;4.67;;;2.50;;
16254;SDS011;8235;52.198;9.904;2023-03-12T07:45:57;4.40;;;2.27;;
16254;SDS011;8235;52.198;9.904;2023-03-12T07:48:24;5.53;;;2.47;;
16254;SDS011;8235;52.198;9.904;2023-03-12T07:50:50;8.07;;;4.03;;
16254;SDS011;8235;52.198;9.904;2023-03-12T07:53:18;6.13;;;3.13;;
16254;SDS011;8235;52.198;9.904;2023-03-12T07:55:45;5.40;;;2.47;;
16254;SDS011;8235;52.198;9.904;2023-03-12T07:58:12;3.77;;;1.90;;
16254;SDS011;8235;52.198;9.904;2023-03-12T08:00:39;4.80;;;2.63;;
16254;SDS011;8235;52.198;9.904;2023-03-12T08:03:06;4.30;;;2.40;;
16254;SDS011;8235;52.198;9.904;2023-03-12T08:05:32;5.03;;;2.20;;
16254;SDS011;8235;52.198;9.904;2023-03-12T08:07:59;5.87;;;2.60;;
16254;SDS011;8235;52.198;9.904;2023-03-12T08:10:27;3.00;;;1.90;;
16254;SDS011;8235;52.198;9.904;2023-03-12T08:12:53;7.83;;;1.70;;
16254;SDS011;8235;52.198;9.904;2023-03-12T08:15:20;4.77;;;2.17;;
16254;SDS011;8235;52.198;9.904;2023-03-12T08:17:46;3.67;;;2.67;;
16254;SDS011;8235;52.198;9.904;2023-03-12T08:20:13;2.53;;;2.33;;
16254;SDS011;8235;52.198;9.904;2023-03-12T08:22:39;3.10;;;1.93;;
16254;SDS011;8235;52.198;9.904;2023-03-12T08:25:06;3.20;;;1.40;;
16254;SDS011;8235;52.198;9.904;2023-03-12T08:27:35;4.33;;;1.60;;
16254;SDS011;8235;52.198;9.904;2023-03-12T08:30:02;2.23;;;1.30;;
16254;SDS011;8235;52.198;9.904;2023-03-12T08:32:30;2.30;;;1.50;;
16254;SDS011;8235;52.198;9.904;2023-03-12T08:34:57;3.93;;;1.73;;
16254;SDS011;8235;52.198;9.904;2023-03-12T08:37:23;4.43;;;1.70;;
16254;SDS011;8235;52.198;9.904;2023-03-12T08:39:51;2.77;;;1.50;;
16254;SDS011;8235;52.198;9.904;2023-03-12T08:42:18;2.33;;;1.40;;
16254;SDS011;8235;52.198;9.904;2023-03-12T08:44:46;5.80;;;2.47;;
16254;SDS011;8235;52.198;9.904;2023-03-12T08:47:15;2.43;;;1.60;;
16254;SDS011;8235;52.198;9.904;2023-03-12T08:49:42;3.17;;;1.50;;
16254;SDS011;8235;52.198;9.904;2023-03-12T08:52:08;5.63;;;2.60;;
16254;SDS011;8235;52.198;9.904;2023-03-12T08:54:35;5.00;;;2.00;;
16254;SDS011;8235;52.198;9.904;2023-03-12T08:57:01;3.07;;;1.37;;
16254;SDS011;8235;52.198;9.904;2023-03-12T08:59:28;3.00;;;2.33;;
16254;SDS011;8235;52.198;9.904;2023-03-12T09:02:04;4.17;;;1.57;;
16254;SDS011;8235;52.198;9.904;2023-03-12T09:04:31;4.07;;;1.50;;
16254;SDS011;8235;52.198;9.904;2023-03-12T09:06:59;2.63;;;1.67;;
16254;SDS011;8235;52.198;9.904;2023-03-12T09:09:27;3.03;;;1.77;;
16254;SDS011;8235;52.198;9.904;2023-03-12T09:11:53;3.67;;;1.70;;
16254;SDS011;8235;52.198;9.904;2023-03-12T09:14:20;3.20;;;1.63;;
16254;SDS011;8235;52.198;9.904;2023-03-12T09:16:49;2.93;;;2.00;;
16254;SDS011;8235;52.198;9.904;2023-03-12T09:19:17;5.57;;;2.13;;
16254;SDS011;8235;52.198;9.904;2023-03-12T09:21:44;3.67;;;2.17;;
16254;SDS011;8235;52.198;9.904;2023-03-12T09:24:10;6.03;;;2.83;;
16254;SDS011;8235;52.198;9.904;2023-03-12T09:26:37;5.40;;;3.50;;
16254;SDS011;8235;52.198;9.904;2023-03-12T09:29:03;8.43;;;5.33;;
16254;SDS011;8235;52.198;9.904;2023-03-12T09:31:32;7.80;;;4.90;;
16254;SDS011;8235;52.198;9.904;2023-03-12T09:34:00;6.80;;;4.27;;
16254;SDS011;8235;52.198;9.904;2023-03-12T09:36:30;4.47;;;2.80;;
16254;SDS011;8235;52.198;9.904;2023-03-12T09:38:57;4.23;;;2.27;;
16254;SDS011;8235;52.198;9.904;2023-03-12T09:41:25;3.93;;;1.73;;
16254;SDS011;8235;52.198;9.904;2023-03-12T09:43:56;2.33;;;1.67;;
16254;SDS011;8235;52.198;9.904;2023-03-12T09:46:28;3.23;;;1.90;;
16254;SDS011;8235;52.198;9.904;2023-03-12T09:49:00;3.20;;;1.37;;
16254;SDS011;8235;52.198;9.904;2023-03-12T09:51:34;3.50;;;1.70;;
16254;SDS011;8235;52.198;9.904;2023-03-12T09:54:07;3.03;;;1.40;;
16254;SDS011;8235;52.198;9.904;2023-03-12T09:56:46;3.23;;;1.60;;
16254;SDS011;8235;52.198;9.904;2023-03-12T09:59:16;3.43;;;1.23;;
16254;SDS011;8235;52.198;9.904;2023-03-12T10:01:43;2.13;;;1.37;;
16254;SDS011;8235;52.198;9.904;2023-03-12T10:04:19;2.53;;;0.97;;
16254;SDS011;8235;52.198;9.904;2023-03-12T10:07:05;3.50;;;1.30;;
16254;SDS011;8235;52.198;9.904;2023-03-12T10:09:41;2.43;;;1.30;;
16254;SDS011;8235;52.198;9.904;2023-03-12T10:12:29;4.97;;;1.90;;
16254;SDS011;8235;52.198;9.904;2023-03-12T10:15:13;1.67;;;1.40;;
16254;SDS011;8235;52.198;9.904;2023-03-12T10:17:53;4.97;;;1.70;;
16254;SDS011;8235;52.198;9.904;2023-03-12T10:20:39;3.97;;;1.30;;
16254;SDS011;8235;52.198;9.904;2023-03-12T10:23:18;3.30;;;1.30;;
16254;SDS011;8235;52.198;9.904;2023-03-12T10:25:52;3.57;;;1.70;;
16254;SDS011;8235;52.198;9.904;2023-03-12T10:28:24;4.03;;;1.60;;
16254;SDS011;8235;52.198;9.904;2023-03-12T10:30:56;1.77;;;1.60;;
16254;SDS011;8235;52.198;9.904;2023-03-12T10:33:29;3.50;;;1.77;;
16254;SDS011;8235;52.198;9.904;2023-03-12T10:36:08;1.87;;;1.63;;
16254;SDS011;8235;52.198;9.904;2023-03-12T10:38:41;3.83;;;1.53;;
16254;SDS011;8235;52.198;9.904;2023-03-12T10:41:12;1.73;;;1.53;;
16254;SDS011;8235;52.198;9.904;2023-03-12T10:43:40;3.93;;;2.20;;
16254;SDS011;8235;52.198;9.904;2023-03-12T10:46:13;6.27;;;1.93;;
16254;SDS011;8235;52.198;9.904;2023-03-12T10:51:54;4.17;;;1.93;;
16254;SDS011;8235;52.198;9.904;2023-03-12T10:54:28;2.37;;;1.77;;
16254;SDS011;8235;52.198;9.904;2023-03-12T10:56:57;4.90;;;1.90;;
16254;SDS011;8235;52.198;9.904;2023-03-12T10:59:25;3.80;;;1.70;;
16254;SDS011;8235;52.198;9.904;2023-03-12T11:01:54;3.70;;;1.90;;
16254;SDS011;8235;52.198;9.904;2023-03-12T11:04:22;3.67;;;1.83;;
16254;SDS011;8235;52.198;9.904;2023-03-12T11:09:45;4.73;;;2.13;;
16254;SDS011;8235;52.198;9.904;2023-03-12T11:12:37;4.20;;;2.17;;
16254;SDS011;8235;52.198;9.904;2023-03-12T11:15:16;4.53;;;1.90;;
16254;SDS011;8235;52.198;9.904;2023-03-12T11:17:44;4.73;;;2.63;;
16254;SDS011;8235;52.198;9.904;2023-03-12T11:22:54;3.00;;;2.60;;
16254;SDS011;8235;52.198;9.904;2023-03-12T11:25:23;4.23;;;2.50;;
16254;SDS011;8235;52.198;9.904;2023-03-12T11:27:53;6.50;;;2.87;;
16254;SDS011;8235;52.198;9.904;2023-03-12T11:30:21;4.70;;;3.00;;
16254;SDS011;8235;52.198;9.904;2023-03-12T11:32:51;5.87;;;3.47;;
16254;SDS011;8235;52.198;9.904;2023-03-12T11:35:20;5.17;;;2.77;;
16254;SDS011;8235;52.198;9.904;2023-03-12T11:38:05;5.47;;;2.93;;
16254;SDS011;8235;52.198;9.904;2023-03-12T11:40:52;5.00;;;3.27;;
16254;SDS011;8235;52.198;9.904;2023-03-12T11:46:26;5.67;;;2.40;;
16254;SDS011;8235;52.198;9.904;2023-03-12T11:49:06;4.73;;;3.17;;
16254;SDS011;8235;52.198;9.904;2023-03-12T11:51:42;4.07;;;2.60;;
16254;SDS011;8235;52.198;9.904;2023-03-12T11:54:19;4.00;;;2.83;;
16254;SDS011;8235;52.198;9.904;2023-03-12T11:57:13;4.20;;;2.73;;
16254;SDS011;8235;52.198;9.904;2023-03-12T11:59:54;6.47;;;3.23;;
16254;SDS011;8235;52.198;9.904;2023-03-12T12:02:37;4.37;;;2.23;;
16254;SDS011;8235;52.198;9.904;2023-03-12T12:05:35;5.37;;;2.93;;
16254;SDS011;8235;52.198;9.904;2023-03-12T12:08:09;4.93;;;2.43;;
16254;SDS011;8235;52.198;9.904;2023-03-12T12:10:49;5.13;;;3.17;;
16254;SDS011;8235;52.198;9.904;2023-03-12T12:13:24;7.33;;;3.60;;
16254;SDS011;8235;52.198;9.904;2023-03-12T12:16:00;3.27;;;2.40;;
16254;SDS011;8235;52.198;9.904;2023-03-12T12:18:43;4.30;;;3.10;;
16254;SDS011;8235;52.198;9.904;2023-03-12T12:21:25;4.17;;;2.50;;
16254;SDS011;8235;52.198;9.904;2023-03-12T12:24:00;3.57;;;2.53;;
16254;SDS011;8235;52.198;9.904;2023-03-12T12:26:36;5.73;;;3.70;;
16254;SDS011;8235;52.198;9.904;2023-03-12T12:31:59;3.50;;;2.67;;
16254;SDS011;8235;52.198;9.904;2023-03-12T12:34:34;2.83;;;1.77;;
16254;SDS011;8235;52.198;9.904;2023-03-12T12:37:16;4.20;;;2.37;;
16254;SDS011;8235;52.198;9.904;2023-03-12T12:39:52;3.77;;;2.10;;
16254;SDS011;8235;52.198;9.904;2023-03-12T12:42:27;3.40;;;1.80;;
16254;SDS011;8235;52.198;9.904;2023-03-12T12:44:59;3.60;;;2.30;;
16254;SDS011;8235;52.198;9.904;2023-03-12T12:47:33;4.63;;;2.10;;
16254;SDS011;8235;52.198;9.904;2023-03-12T12:50:10;3.37;;;2.23;;
16254;SDS011;8235;52.198;9.904;2023-03-12T12:52:42;3.87;;;1.80;;
16254;SDS011;8235;52.198;9.904;2023-03-12T12:55:10;3.37;;;2.70;;
16254;SDS011;8235;52.198;9.904;2023-03-12T12:57:43;3.10;;;2.27;;
16254;SDS011;8235;52.198;9.904;2023-03-12T13:00:20;4.17;;;2.43;;
16254;SDS011;8235;52.198;9.904;2023-03-12T13:02:56;3.53;;;2.77;;
16254;SDS011;8235;52.198;9.904;2023-03-12T13:05:24;5.80;;;3.07;;
16254;SDS011;8235;52.198;9.904;2023-03-12T13:07:53;3.30;;;2.77;;
16254;SDS011;8235;52.198;9.904;2023-03-12T13:13:17;3.40;;;2.00;;
16254;SDS011;8235;52.198;9.904;2023-03-12T13:15:47;3.80;;;2.57;;
16254;SDS011;8235;52.198;9.904;2023-03-12T13:18:21;4.30;;;3.47;;
16254;SDS011;8235;52.198;9.904;2023-03-12T13:23:42;4.73;;;2.70;;
16254;SDS011;8235;52.198;9.904;2023-03-12T13:26:25;3.20;;;2.60;;
16254;SDS011;8235;52.198;9.904;2023-03-12T13:28:57;4.53;;;3.20;;
16254;SDS011;8235;52.198;9.904;2023-03-12T13:31:38;4.43;;;3.20;;
16254;SDS011;8235;52.198;9.904;2023-03-12T13:37:18;3.90;;;3.00;;
16254;SDS011;8235;52.198;9.904;2023-03-12T13:43:29;4.87;;;3.17;;
16254;SDS011;8235;52.198;9.904;2023-03-12T13:46:32;5.10;;;3.50;;
16254;SDS011;8235;52.198;9.904;2023-03-12T13:49:04;3.63;;;3.27;;
16254;SDS011;8235;52.198;9.904;2023-03-12T13:51:41;5.43;;;4.73;;
16254;SDS011;8235;52.198;9.904;2023-03-12T13:54:12;3.93;;;2.77;;
16254;SDS011;8235;52.198;9.904;2023-03-12T13:56:46;4.60;;;2.80;;
16254;SDS011;8235;52.198;9.904;2023-03-12T13:59:22;3.80;;;3.40;;
16254;SDS011;8235;52.198;9.904;2023-03-12T14:01:52;4.60;;;3.87;;
16254;SDS011;8235;52.198;9.904;2023-03-12T14:04:27;4.23;;;3.83;;
16254;SDS011;8235;52.198;9.904;2023-03-12T14:07:02;4.27;;;3.27;;
16254;SDS011;8235;52.198;9.904;2023-03-12T14:09:53;4.87;;;3.07;;
16254;SDS011;8235;52.198;9.904;2023-03-12T14:12:26;3.20;;;2.90;;
16254;SDS011;8235;52.198;9.904;2023-03-12T14:15:07;3.60;;;2.63;;
16254;SDS011;8235;52.198;9.904;2023-03-12T14:17:45;3.07;;;2.73;;
16254;SDS011;8235;52.198;9.904;2023-03-12T14:20:22;3.77;;;3.47;;
16254;SDS011;8235;52.198;9.904;2023-03-12T14:22:50;3.00;;;2.70;;
16254;SDS011;8235;52.198;9.904;2023-03-12T14:25:21;3.80;;;2.57;;
16254;SDS011;8235;52.198;9.904;2023-03-12T14:27:52;2.87;;;2.67;;
16254;SDS011;8235;52.198;9.904;2023-03-12T14:30:20;2.87;;;2.67;;
16254;SDS011;8235;52.198;9.904;2023-03-12T14:32:51;3.60;;;2.60;;
16254;SDS011;8235;52.198;9.904;2023-03-12T14:35:21;3.37;;;3.07;;
16254;SDS011;8235;52.198;9.904;2023-03-12T14:37:56;3.33;;;2.87;;
16254;SDS011;8235;52.198;9.904;2023-03-12T14:40:30;3.30;;;2.60;;
16254;SDS011;8235;52.198;9.904;2023-03-12T14:43:23;6.47;;;3.73;;
16254;SDS011;8235;52.198;9.904;2023-03-12T14:45:55;5.07;;;4.47;;
16254;SDS011;8235;52.198;9.904;2023-03-12T14:48:25;6.17;;;4.23;;
16254;SDS011;8235;52.198;9.904;2023-03-12T14:50:58;3.93;;;3.27;;
16254;SDS011;8235;52.198;9.904;2023-03-12T14:53:38;5.10;;;4.40;;
16254;SDS011;8235;52.198;9.904;2023-03-12T14:56:05;6.27;;;4.13;;
16254;SDS011;8235;52.198;9.904;2023-03-12T14:58:40;6.60;;;5.03;;
16254;SDS011;8235;52.198;9.904;2023-03-12T15:01:10;7.07;;;6.37;;
16254;SDS011;8235;52.198;9.904;2023-03-12T15:03:39;6.20;;;5.00;;
16254;SDS011;8235;52.198;9.904;2023-03-12T15:06:17;4.33;;;3.87;;
16254;SDS011;8235;52.198;9.904;2023-03-12T15:08:49;5.80;;;4.27;;
16254;SDS011;8235;52.198;9.904;2023-03-12T15:11:18;3.53;;;3.20;;
16254;SDS011;8235;52.198;9.904;2023-03-12T15:13:51;4.43;;;4.00;;
16254;SDS011;8235;52.198;9.904;2023-03-12T15:16:21;5.20;;;4.70;;
16254;SDS011;8235;52.198;9.904;2023-03-12T15:18:49;5.77;;;3.50;;
16254;SDS011;8235;52.198;9.904;2023-03-12T15:21:18;4.40;;;4.00;;
16254;SDS011;8235;52.198;9.904;2023-03-12T15:23:46;4.97;;;4.37;;
16254;SDS011;8235;52.198;9.904;2023-03-12T15:26:14;3.97;;;3.67;;
16254;SDS011;8235;52.198;9.904;2023-03-12T15:28:53;5.33;;;3.53;;
16254;SDS011;8235;52.198;9.904;2023-03-12T15:31:21;4.00;;;3.40;;
16254;SDS011;8235;52.198;9.904;2023-03-12T15:33:58;2.87;;;2.63;;
16254;SDS011;8235;52.198;9.904;2023-03-12T15:36:27;4.73;;;4.03;;
16254;SDS011;8235;52.198;9.904;2023-03-12T15:38:56;4.23;;;3.83;;
16254;SDS011;8235;52.198;9.904;2023-03-12T15:41:26;4.37;;;3.97;;
16254;SDS011;8235;52.198;9.904;2023-03-12T15:44:00;3.47;;;3.17;;